Time;durP1;ratioP1;P1;durP2;ratioP2;P2;SDS_P1;SDS_P2;PMS_P1;PMS_P2;Temp;Humidity;BMP_temperature;BMP_pressure;BME280_temperature;BME280_humidity;BME280_pressure;Samples;Min_cycle;Max_cycle;Signal;HPM_P1;HPM_P2
2021/06/12 00:02:22;;;;;;;6.20;4.90;;;18.60;99.90;;;;;;5083143;28;20048;-65
2021/06/12 00:04:48;;;;;;;7.57;5.25;;;18.60;99.90;;;;;;5080311;28;20055;-63
2021/06/12 00:07:13;;;;;;;7.13;5.28;;;18.50;99.90;;;;;;5061430;28;20086;-64
2021/06/12 00:09:39;;;;;;;5.50;4.70;;;18.50;99.90;;;;;;5080034;28;20036;-64
2021/06/12 00:12:05;;;;;;;6.43;4.68;;;18.40;99.90;;;;;;5070760;28;20033;-62
2021/06/12 00:14:31;;;;;;;8.40;4.80;;;18.40;99.90;;;;;;5071236;28;20040;-63
2021/06/12 00:16:57;;;;;;;7.60;5.10;;;18.40;99.90;;;;;;5066943;28;20030;-65
2021/06/12 00:19:22;;;;;;;10.70;5.03;;;18.40;99.90;;;;;;5070820;28;20039;-64
2021/06/12 00:21:48;;;;;;;6.45;4.88;;;18.30;99.90;;;;;;5075454;28;20116;-62
2021/06/12 00:24:14;;;;;;;6.45;4.72;;;18.30;99.90;;;;;;5073944;28;20051;-64
2021/06/12 00:26:40;;;;;;;7.35;5.10;;;18.30;99.90;;;;;;5064793;28;20037;-63
2021/06/12 00:29:06;;;;;;;8.90;5.13;;;18.20;99.90;;;;;;5072765;28;20051;-64
2021/06/12 00:31:32;;;;;;;7.82;5.00;;;18.20;99.90;;;;;;5076407;28;20060;-64
2021/06/12 00:33:57;;;;;;;6.75;4.82;;;18.20;99.90;;;;;;5074332;28;20104;-64
2021/06/12 00:36:23;;;;;;;7.10;4.78;;;18.10;99.90;;;;;;5072614;28;20120;-64
2021/06/12 00:38:50;;;;;;;7.35;4.70;;;18.10;99.90;;;;;;5076443;28;20445;-64
2021/06/12 00:41:17;;;;;;;6.88;4.57;;;18.00;99.90;;;;;;5083246;28;20028;-64
2021/06/12 00:43:43;;;;;;;5.80;4.28;;;18.00;99.90;;;;;;5080467;28;20446;-64
2021/06/12 00:46:10;;;;;;;5.80;4.07;;;18.00;99.90;;;;;;5070513;28;20123;-64
2021/06/12 00:48:37;;;;;;;6.40;4.55;;;18.10;99.90;;;;;;5076269;28;20040;-65
2021/06/12 00:51:03;;;;;;;6.18;4.70;;;18.10;99.90;;;;;;5076745;28;20470;-62
2021/06/12 00:53:41;;;;;;;8.43;4.53;;;18.10;99.90;;;;;;5073151;28;20033;-65
2021/06/12 00:56:10;;;;;;;7.57;5.07;;;18.20;99.90;;;;;;5081401;28;20029;-64
2021/06/12 00:58:42;;;;;;;8.27;4.45;;;18.10;99.90;;;;;;5081973;28;20028;-63
2021/06/12 01:01:09;;;;;;;6.10;4.80;;;18.00;99.90;;;;;;5079981;28;20415;-65
2021/06/12 01:03:39;;;;;;;5.78;4.13;;;18.00;99.90;;;;;;5075107;28;20041;-63
2021/06/12 01:06:07;;;;;;;6.35;5.03;;;18.00;99.90;;;;;;5083306;28;20038;-64
2021/06/12 01:08:33;;;;;;;7.75;4.75;;;17.90;99.90;;;;;;5073548;28;20037;-64
2021/06/12 01:10:58;;;;;;;9.43;4.95;;;18.00;99.90;;;;;;5073740;28;20035;-63
2021/06/12 01:13:47;;;;;;;6.13;4.57;;;18.00;99.90;;;;;;5071827;28;20474;-64
2021/06/12 01:16:25;;;;;;;9.38;5.15;;;17.90;99.90;;;;;;5085114;28;20094;-63
2021/06/12 01:18:52;;;;;;;6.55;4.35;;;17.90;99.90;;;;;;5073055;28;20188;-64
2021/06/12 01:21:33;;;;;;;6.68;4.53;;;17.80;99.90;;;;;;5075487;28;20033;-64
2021/06/12 01:23:59;;;;;;;6.05;4.50;;;17.80;99.90;;;;;;5071498;28;20502;-65
2021/06/12 01:26:34;;;;;;;6.28;4.72;;;17.80;99.90;;;;;;5085304;28;20032;-63
2021/06/12 01:29:19;;;;;;;7.53;4.68;;;17.70;99.90;;;;;;5082352;28;20158;-63
2021/06/12 01:31:45;;;;;;;;;;;17.70;99.90;;;;;;5063630;28;20104;-64
2021/06/12 01:34:11;;;;;;;6.78;4.47;;;17.60;99.90;;;;;;5077033;28;20006;-64
2021/06/12 01:36:38;;;;;;;5.28;4.30;;;17.60;99.90;;;;;;5073255;28;20032;-65
2021/06/12 01:39:05;;;;;;;5.30;4.00;;;17.50;99.90;;;;;;5071669;28;20142;-65
2021/06/12 01:41:33;;;;;;;5.45;4.45;;;17.60;99.90;;;;;;5079744;28;20394;-65
2021/06/12 01:44:00;;;;;;;6.45;4.50;;;17.50;99.90;;;;;;5084112;28;20055;-64
2021/06/12 01:46:28;;;;;;;7.28;4.75;;;17.50;99.90;;;;;;5072575;28;20025;-65
2021/06/12 01:48:56;;;;;;;6.85;4.63;;;17.40;99.90;;;;;;5076666;28;20032;-63
2021/06/12 01:51:22;;;;;;;6.88;4.80;;;17.40;99.90;;;;;;5074933;28;20040;-65
2021/06/12 01:53:53;;;;;;;6.72;4.50;;;17.30;99.90;;;;;;5058272;28;20082;-65
2021/06/12 01:56:19;;;;;;;6.00;4.60;;;17.20;99.90;;;;;;5079115;28;20037;-64
2021/06/12 01:58:46;;;;;;;5.32;4.50;;;17.10;99.90;;;;;;5084407;28;20035;-65
2021/06/12 02:01:14;;;;;;;6.13;4.80;;;17.10;99.90;;;;;;5073856;28;20036;-64
2021/06/12 02:03:41;;;;;;;6.90;4.40;;;17.00;99.90;;;;;;5072730;28;20024;-63
2021/06/12 02:06:11;;;;;;;5.85;4.82;;;17.00;99.90;;;;;;5072870;28;20032;-64
2021/06/12 02:08:42;;;;;;;8.57;5.90;;;17.00;99.90;;;;;;5069494;28;20109;-63
2021/06/12 02:11:08;;;;;;;7.90;5.05;;;17.00;99.90;;;;;;5071379;28;20418;-63
2021/06/12 02:13:36;;;;;;;7.47;4.90;;;16.90;99.90;;;;;;5072020;28;20032;-63
2021/06/12 02:16:03;;;;;;;6.30;4.85;;;16.90;99.90;;;;;;5074040;28;20016;-64
2021/06/12 02:18:30;;;;;;;8.38;5.50;;;16.90;99.90;;;;;;5071805;28;20033;-63
2021/06/12 02:20:58;;;;;;;8.07;5.15;;;16.80;99.90;;;;;;5076103;28;20431;-64
2021/06/12 02:23:27;;;;;;;7.65;5.28;;;16.80;99.90;;;;;;5071395;28;20452;-63
2021/06/12 02:25:53;;;;;;;8.18;6.13;;;16.80;99.90;;;;;;5080262;28;20025;-65
2021/06/12 02:28:21;;;;;;;7.53;5.40;;;16.90;99.90;;;;;;5074367;28;20033;-64
2021/06/12 02:31:03;;;;;;;11.45;5.85;;;16.90;99.90;;;;;;5072582;28;20083;-64
2021/06/12 02:33:33;;;;;;;9.48;5.70;;;16.90;99.90;;;;;;5070657;28;20037;-65
2021/06/12 02:36:01;;;;;;;9.63;5.90;;;16.80;99.90;;;;;;5070562;28;20013;-64
2021/06/12 02:38:28;;;;;;;6.85;5.10;;;16.80;99.90;;;;;;5071824;28;20025;-63
2021/06/12 02:40:55;;;;;;;8.57;5.70;;;16.80;99.90;;;;;;5074960;28;20151;-62
2021/06/12 02:43:20;;;;;;;7.35;5.97;;;16.70;99.90;;;;;;5069773;28;20374;-64
2021/06/12 02:45:46;;;;;;;7.05;5.70;;;16.70;99.90;;;;;;5073218;28;20040;-63
2021/06/12 02:48:16;;;;;;;8.38;5.95;;;16.70;99.90;;;;;;5073000;28;20028;-64
2021/06/12 02:50:44;;;;;;;8.70;6.00;;;16.70;99.90;;;;;;5070349;28;20509;-63
2021/06/12 02:53:12;;;;;;;12.20;6.85;;;16.60;99.90;;;;;;5082815;28;20036;-64
2021/06/12 02:55:40;;;;;;;9.93;6.20;;;16.60;99.90;;;;;;5063970;28;20037;-63
2021/06/12 02:58:09;;;;;;;7.03;5.85;;;16.60;99.90;;;;;;5068604;28;20363;-65
2021/06/12 03:00:36;;;;;;;8.45;6.25;;;16.60;99.90;;;;;;5071803;28;20139;-64
2021/06/12 03:03:03;;;;;;;7.57;5.60;;;16.60;99.90;;;;;;5077910;28;20077;-65
2021/06/12 03:05:32;;;;;;;8.93;5.65;;;16.60;99.90;;;;;;5070691;28;20056;-63
2021/06/12 03:08:00;;;;;;;10.40;6.40;;;16.60;99.90;;;;;;5072122;28;20036;-65
2021/06/12 03:10:29;;;;;;;8.27;6.00;;;16.50;99.90;;;;;;5071117;28;20032;-64
2021/06/12 03:12:56;;;;;;;8.65;5.97;;;16.40;99.90;;;;;;5067316;28;20101;-64
2021/06/12 03:15:23;;;;;;;11.02;6.18;;;16.50;99.90;;;;;;5084601;28;20036;-65
2021/06/12 03:17:50;;;;;;;8.00;6.13;;;16.50;99.90;;;;;;5077982;28;20093;-63
2021/06/12 03:20:19;;;;;;;9.50;5.43;;;16.50;99.90;;;;;;5071489;28;20483;-64
2021/06/12 03:22:47;;;;;;;10.55;5.97;;;16.60;99.90;;;;;;5070808;28;20105;-63
2021/06/12 03:25:14;;;;;;;9.68;6.00;;;16.50;99.90;;;;;;5070742;28;20050;-65
2021/06/12 03:27:42;;;;;;;10.95;6.15;;;16.60;99.90;;;;;;5071171;28;20063;-63
2021/06/12 03:30:08;;;;;;;8.38;5.90;;;16.60;99.90;;;;;;5076291;28;20456;-65
2021/06/12 03:32:35;;;;;;;9.80;5.85;;;16.60;99.90;;;;;;5059907;28;20036;-64
2021/06/12 03:35:01;;;;;;;12.15;6.45;;;16.50;99.90;;;;;;5077055;28;20043;-64
2021/06/12 03:37:28;;;;;;;8.15;5.95;;;16.40;99.90;;;;;;5073530;28;20149;-64
2021/06/12 03:39:54;;;;;;;9.45;6.30;;;16.40;99.90;;;;;;5073781;28;20020;-64
2021/06/12 03:42:21;;;;;;;8.35;5.90;;;16.40;99.90;;;;;;5069248;28;20474;-63
2021/06/12 03:44:47;;;;;;;10.65;6.05;;;16.40;99.90;;;;;;5072853;28;20059;-64
2021/06/12 03:47:13;;;;;;;8.32;5.80;;;16.30;99.90;;;;;;5075746;28;20111;-64
2021/06/12 03:49:39;;;;;;;12.95;6.28;;;16.30;99.90;;;;;;5069945;28;20029;-64
2021/06/12 03:52:06;;;;;;;11.45;6.05;;;16.30;99.90;;;;;;5072736;28;20028;-64
2021/06/12 03:54:34;;;;;;;9.77;6.15;;;16.30;99.90;;;;;;5070096;28;20037;-65
2021/06/12 03:57:00;;;;;;;9.88;5.95;;;16.30;99.90;;;;;;5072491;28;20020;-64
2021/06/12 03:59:26;;;;;;;15.52;6.65;;;16.30;99.90;;;;;;5074010;28;20375;-63
2021/06/12 04:01:53;;;;;;;11.27;6.28;;;16.30;99.90;;;;;;5070975;28;20036;-65
2021/06/12 04:04:21;;;;;;;9.27;5.47;;;16.30;99.90;;;;;;5070930;28;20410;-64
2021/06/12 04:06:46;;;;;;;11.80;6.53;;;16.20;99.90;;;;;;5072203;28;20028;-65
2021/06/12 04:09:12;;;;;;;9.88;5.63;;;16.20;99.90;;;;;;5070080;28;20037;-64
2021/06/12 04:11:38;;;;;;;9.15;5.80;;;16.30;99.90;;;;;;5074719;28;20473;-63
2021/06/12 04:14:04;;;;;;;7.40;5.20;;;16.30;99.90;;;;;;5070439;28;20103;-65
2021/06/12 04:16:29;;;;;;;9.77;5.85;;;16.30;99.90;;;;;;5071138;28;20029;-64
2021/06/12 04:18:55;;;;;;;13.55;5.70;;;16.30;99.90;;;;;;5076081;28;20044;-65
2021/06/12 04:21:21;;;;;;;12.70;6.15;;;16.20;99.90;;;;;;5067507;28;20044;-65
2021/06/12 04:23:47;;;;;;;8.43;5.57;;;16.30;99.90;;;;;;5071669;28;20466;-63
2021/06/12 04:26:12;;;;;;;10.57;6.47;;;16.20;99.90;;;;;;5075151;28;20103;-65
2021/06/12 04:28:38;;;;;;;10.63;5.60;;;16.20;99.90;;;;;;5075717;28;20477;-63
2021/06/12 04:31:04;;;;;;;9.27;5.43;;;16.20;99.90;;;;;;5070096;28;20028;-64
2021/06/12 04:33:30;;;;;;;12.32;5.57;;;16.10;99.90;;;;;;5071643;28;20444;-65
2021/06/12 04:35:56;;;;;;;11.70;5.47;;;16.20;99.90;;;;;;5070803;28;20039;-64
2021/06/12 04:38:22;;;;;;;8.88;5.70;;;16.20;99.90;;;;;;5070774;28;20107;-64
2021/06/12 04:40:48;;;;;;;13.20;5.95;;;16.20;99.90;;;;;;5078921;28;20455;-63
2021/06/12 04:43:13;;;;;;;11.43;5.65;;;16.20;99.90;;;;;;5075377;28;20036;-63
2021/06/12 04:45:40;;;;;;;9.88;5.90;;;16.20;99.90;;;;;;5074845;28;20466;-64
2021/06/12 04:48:07;;;;;;;10.52;5.80;;;16.20;99.90;;;;;;5081063;28;20032;-63
2021/06/12 04:50:36;;;;;;;11.68;6.10;;;16.20;99.90;;;;;;5069775;28;20036;-63
2021/06/12 04:53:04;;;;;;;9.98;6.20;;;16.20;99.90;;;;;;5089812;28;20020;-63
2021/06/12 04:55:31;;;;;;;13.48;5.90;;;16.20;99.90;;;;;;5076625;28;20082;-65
2021/06/12 04:57:57;;;;;;;9.15;5.75;;;16.30;99.90;;;;;;5084307;28;20040;-63
2021/06/12 05:00:23;;;;;;;14.35;6.50;;;16.20;99.90;;;;;;5079461;28;20398;-63
2021/06/12 05:02:49;;;;;;;14.18;6.43;;;16.20;99.90;;;;;;5053975;28;20439;-62
2021/06/12 05:05:15;;;;;;;10.75;6.15;;;16.20;99.90;;;;;;5079783;28;20115;-65
2021/06/12 05:07:40;;;;;;;13.00;6.07;;;16.20;99.90;;;;;;5088950;28;20500;-64
2021/06/12 05:10:08;;;;;;;10.88;6.32;;;16.20;99.90;;;;;;5073110;28;20027;-63
2021/06/12 05:12:34;;;;;;;10.65;5.82;;;16.20;99.90;;;;;;5073144;28;20032;-64
2021/06/12 05:15:02;;;;;;;10.32;6.07;;;16.30;99.90;;;;;;5072203;28;20032;-65
2021/06/12 05:17:29;;;;;;;11.05;6.13;;;16.20;99.90;;;;;;5081436;28;20033;-64
2021/06/12 05:19:55;;;;;;;13.05;6.45;;;16.30;99.90;;;;;;5078040;28;20033;-63
2021/06/12 05:22:25;;;;;;;11.52;6.22;;;16.30;99.90;;;;;;5078567;28;20035;-64
2021/06/12 05:24:55;;;;;;;14.13;6.95;;;16.30;99.90;;;;;;5079901;28;20024;-65
2021/06/12 05:27:22;;;;;;;13.07;6.47;;;16.30;99.90;;;;;;5073847;28;20055;-64
2021/06/12 05:29:48;;;;;;;10.82;6.25;;;16.30;99.90;;;;;;5074527;28;20389;-63
2021/06/12 05:32:14;;;;;;;10.70;6.05;;;16.40;99.90;;;;;;5073862;28;20476;-63
2021/06/12 05:34:41;;;;;;;9.80;6.00;;;16.40;99.90;;;;;;5071063;28;20039;-63
2021/06/12 05:37:07;;;;;;;16.63;6.43;;;16.40;99.90;;;;;;5074473;28;20505;-63
2021/06/12 05:39:33;;;;;;;11.65;6.75;;;16.50;99.90;;;;;;5076411;28;20044;-65
2021/06/12 05:41:59;;;;;;;17.25;7.50;;;16.50;99.90;;;;;;5076979;28;20499;-65
2021/06/12 05:44:25;;;;;;;12.32;6.10;;;16.40;99.90;;;;;;5072699;28;20035;-64
2021/06/12 05:46:51;;;;;;;12.10;6.47;;;16.40;99.90;;;;;;5073251;28;20020;-62
2021/06/12 05:49:18;;;;;;;18.70;7.13;;;16.40;99.90;;;;;;5075089;28;20025;-63
2021/06/12 05:51:44;;;;;;;16.70;9.65;;;16.40;99.90;;;;;;5075940;28;20039;-63
2021/06/12 05:54:10;;;;;;;13.65;6.50;;;16.50;99.90;;;;;;5083726;28;20470;-65
2021/06/12 05:56:36;;;;;;;12.70;6.72;;;16.60;99.90;;;;;;5075588;28;20414;-65
2021/06/12 05:59:02;;;;;;;16.55;7.05;;;16.60;99.90;;;;;;5078073;28;20028;-63
2021/06/12 06:01:28;;;;;;;11.88;6.57;;;16.70;99.90;;;;;;5066151;28;20101;-62
2021/06/12 06:03:54;;;;;;;10.70;6.40;;;16.70;99.90;;;;;;5077431;28;20029;-63
2021/06/12 06:06:20;;;;;;;16.63;6.68;;;16.80;99.90;;;;;;5080247;28;20466;-65
2021/06/12 06:08:45;;;;;;;12.15;6.45;;;16.80;99.90;;;;;;5065526;28;20046;-63
2021/06/12 06:11:11;;;;;;;12.55;6.78;;;16.80;99.90;;;;;;5071779;28;20036;-63
2021/06/12 06:13:41;;;;;;;14.52;6.40;;;16.80;99.90;;;;;;5072650;28;20032;-63
2021/06/12 06:16:07;;;;;;;13.98;6.78;;;16.80;99.90;;;;;;5063340;28;20021;-65
2021/06/12 06:18:34;;;;;;;11.82;7.03;;;16.80;99.90;;;;;;5071646;28;20054;-63
2021/06/12 06:21:00;;;;;;;14.75;7.32;;;16.90;99.90;;;;;;5082507;28;20032;-63
2021/06/12 06:23:26;;;;;;;11.55;6.63;;;16.90;99.90;;;;;;5072968;28;20035;-63
2021/06/12 06:25:51;;;;;;;13.95;6.72;;;17.00;99.90;;;;;;5071305;28;20085;-63
2021/06/12 06:28:17;;;;;;;13.45;6.63;;;17.00;99.90;;;;;;5074182;28;20110;-62
2021/06/12 06:30:43;;;;;;;20.63;7.93;;;17.10;99.90;;;;;;5074929;28;20020;-63
2021/06/12 06:33:09;;;;;;;25.00;8.20;;;17.10;99.90;;;;;;5078883;28;20028;-64
2021/06/12 06:35:35;;;;;;;14.15;6.20;;;17.20;99.90;;;;;;5079345;28;20659;-64
2021/06/12 06:38:01;;;;;;;14.48;7.05;;;17.30;99.90;;;;;;5074406;28;20049;-64
2021/06/12 06:40:27;;;;;;;16.17;6.60;;;17.50;99.90;;;;;;5070647;28;20040;-63
2021/06/12 06:42:52;;;;;;;16.17;6.60;;;17.70;99.90;;;;;;5075871;28;20078;-65
2021/06/12 06:45:18;;;;;;;12.38;6.93;;;17.80;99.90;;;;;;5071996;28;20028;-63
2021/06/12 06:47:44;;;;;;;19.27;7.85;;;18.00;99.90;;;;;;5071946;28;20032;-63
2021/06/12 06:50:10;;;;;;;14.40;7.35;;;18.10;99.90;;;;;;5078039;28;20051;-64
2021/06/12 06:52:36;;;;;;;15.98;6.72;;;18.20;99.90;;;;;;5075512;28;20146;-64
2021/06/12 06:55:03;;;;;;;14.50;6.53;;;18.40;99.90;;;;;;5071029;28;20036;-63
2021/06/12 06:57:29;;;;;;;16.48;6.80;;;18.60;99.90;;;;;;5080713;28;20020;-66
2021/06/12 06:59:55;;;;;;;15.23;6.85;;;18.70;99.90;;;;;;5075801;28;20778;-66
2021/06/12 07:02:20;;;;;;;18.50;6.50;;;18.80;99.90;;;;;;5074883;28;20029;-65
2021/06/12 07:04:46;;;;;;;13.98;6.72;;;18.90;99.90;;;;;;5071707;28;20033;-63
2021/06/12 07:07:12;;;;;;;16.48;6.50;;;19.00;99.90;;;;;;5072723;28;20032;-65
2021/06/12 07:09:37;;;;;;;16.95;6.50;;;19.10;99.90;;;;;;5084481;28;20031;-64
2021/06/12 07:12:04;;;;;;;14.85;6.68;;;19.30;99.90;;;;;;5080482;28;20031;-64
2021/06/12 07:14:31;;;;;;;17.85;6.65;;;19.40;99.90;;;;;;5074532;28;20036;-64
2021/06/12 07:16:57;;;;;;;17.00;6.70;;;19.60;99.90;;;;;;5067918;28;20035;-64
2021/06/12 07:19:23;;;;;;;16.67;6.60;;;19.70;99.90;;;;;;5064983;28;20421;-64
2021/06/12 07:21:49;;;;;;;17.92;6.90;;;19.80;99.90;;;;;;5077215;28;20486;-64
2021/06/12 07:24:15;;;;;;;16.85;6.75;;;19.90;99.90;;;;;;5071396;28;20032;-65
2021/06/12 07:26:43;;;;;;;16.20;6.85;;;19.90;99.90;;;;;;5068933;28;20027;-66
2021/06/12 07:29:10;;;;;;;15.32;6.35;;;19.90;99.90;;;;;;5071326;28;20094;-64
2021/06/12 07:31:37;;;;;;;31.13;12.15;;;20.00;99.90;;;;;;5070793;28;20060;-62
2021/06/12 07:34:04;;;;;;;14.85;6.70;;;20.00;99.90;;;;;;5071011;28;20013;-64
2021/06/12 07:36:30;;;;;;;18.42;7.35;;;20.20;99.90;;;;;;5071085;28;20036;-64
2021/06/12 07:38:56;;;;;;;16.40;6.68;;;20.30;99.90;;;;;;5070989;28;20429;-66
2021/06/12 07:41:22;;;;;;;15.50;6.20;;;20.30;99.90;;;;;;5077636;28;20064;-65
2021/06/12 07:43:47;;;;;;;19.02;6.10;;;20.60;99.90;;;;;;5080541;28;20493;-64
2021/06/12 07:46:13;;;;;;;18.00;6.35;;;20.40;99.90;;;;;;5070487;28;20025;-64
2021/06/12 07:48:39;;;;;;;14.77;5.95;;;20.30;99.90;;;;;;5070172;28;20035;-65
2021/06/12 07:51:05;;;;;;;19.48;6.85;;;20.40;99.90;;;;;;5075132;28;20040;-65
2021/06/12 07:53:32;;;;;;;14.45;6.15;;;20.60;99.90;;;;;;5071389;28;20071;-64
2021/06/12 07:55:58;;;;;;;16.17;5.57;;;20.60;99.90;;;;;;5073848;28;20044;-64
2021/06/12 07:58:24;;;;;;;16.45;6.57;;;20.20;99.90;;;;;;5066749;28;20037;-65
2021/06/12 08:00:49;;;;;;;18.40;6.50;;;20.20;99.90;;;;;;5067719;28;20478;-66
2021/06/12 08:03:15;;;;;;;19.00;5.97;;;20.60;99.90;;;;;;5070989;28;20044;-66
2021/06/12 08:05:41;;;;;;;12.63;5.93;;;20.90;99.90;;;;;;5070150;28;20078;-65
2021/06/12 08:08:06;;;;;;;16.67;5.72;;;20.70;99.90;;;;;;5083258;28;20486;-65
2021/06/12 08:10:32;;;;;;;13.35;5.70;;;20.40;99.90;;;;;;5078992;28;20036;-65
2021/06/12 08:12:58;;;;;;;16.10;5.80;;;20.30;99.90;;;;;;5068859;28;20380;-65
2021/06/12 08:15:24;;;;;;;11.15;4.95;;;20.50;99.90;;;;;;5076838;28;20021;-65
2021/06/12 08:17:50;;;;;;;16.23;4.82;;;20.90;99.90;;;;;;5071566;28;20525;-64
2021/06/12 08:20:16;;;;;;;13.35;4.82;;;21.20;99.90;;;;;;5071660;28;20087;-64
2021/06/12 08:22:41;;;;;;;20.02;5.28;;;21.50;99.90;;;;;;5084679;28;20509;-64
2021/06/12 08:25:09;;;;;;;13.57;4.00;;;21.70;99.90;;;;;;5071167;28;20037;-66
2021/06/12 08:27:36;;;;;;;15.13;4.88;;;21.80;99.90;;;;;;5069984;28;20023;-65
2021/06/12 08:30:03;;;;;;;10.82;4.20;;;22.00;99.90;;;;;;5071575;28;20502;-65
2021/06/12 08:32:29;;;;;;;13.18;3.50;;;22.30;99.90;;;;;;5073558;28;20040;-65
2021/06/12 08:34:55;;;;;;;29.38;4.65;;;22.60;99.90;;;;;;5084059;28;20068;-65
2021/06/12 08:37:21;;;;;;;15.23;3.88;;;22.60;99.90;;;;;;5072843;28;20534;-63
2021/06/12 08:39:46;;;;;;;13.82;3.67;;;22.30;99.90;;;;;;5082704;28;20245;-65
2021/06/12 08:42:12;;;;;;;11.55;3.53;;;22.70;99.90;;;;;;5077300;28;20033;-64
2021/06/12 08:44:40;;;;;;;12.68;3.42;;;22.80;99.90;;;;;;5079032;28;20402;-66
2021/06/12 08:47:06;;;;;;;18.45;3.78;;;22.80;99.90;;;;;;5081243;28;20024;-65
2021/06/12 08:49:32;;;;;;;13.30;3.78;;;22.90;99.90;;;;;;5079522;28;20055;-65
2021/06/12 08:51:57;;;;;;;9.65;2.80;;;23.00;99.90;;;;;;5083598;28;20227;-64
2021/06/12 08:54:26;;;;;;;12.18;3.03;;;22.70;99.90;;;;;;5073112;28;20032;-64
2021/06/12 08:56:52;;;;;;;14.35;2.92;;;22.80;99.90;;;;;;5078778;28;20063;-64
2021/06/12 08:59:17;;;;;;;10.45;3.40;;;22.70;99.90;;;;;;5081573;28;20764;-64
2021/06/12 09:01:44;;;;;;;8.52;3.10;;;22.80;99.90;;;;;;5076551;28;20044;-65
2021/06/12 09:04:10;;;;;;;7.97;2.42;;;23.20;99.90;;;;;;5070904;28;20089;-64
2021/06/12 09:06:36;;;;;;;11.40;2.95;;;22.80;99.90;;;;;;5074203;28;20374;-64
2021/06/12 09:09:03;;;;;;;5.75;1.98;;;22.40;99.90;;;;;;5075322;28;20035;-65
2021/06/12 09:11:34;;;;;;;7.28;2.40;;;22.50;99.90;;;;;;5078407;28;20051;-65
2021/06/12 09:14:02;;;;;;;7.15;2.40;;;22.90;99.90;;;;;;5079161;28;20024;-65
2021/06/12 09:16:37;;;;;;;10.57;2.42;;;23.10;99.90;;;;;;5081350;28;20032;-65
2021/06/12 09:19:05;;;;;;;9.10;2.40;;;22.80;99.90;;;;;;5076310;28;20033;-64
2021/06/12 09:21:34;;;;;;;10.10;2.47;;;23.00;99.90;;;;;;5078808;28;20398;-65
2021/06/12 09:24:03;;;;;;;7.30;2.00;;;22.90;99.90;;;;;;5073619;28;20020;-64
2021/06/12 09:26:43;;;;;;;8.55;2.45;;;23.30;99.90;;;;;;5080569;28;20028;-66
2021/06/12 09:29:09;;;;;;;7.10;2.10;;;23.50;99.90;;;;;;5070603;28;20121;-64
2021/06/12 09:31:43;;;;;;;5.93;2.20;;;23.70;99.90;;;;;;5068781;28;20484;-65
2021/06/12 09:34:12;;;;;;;7.80;2.15;;;23.70;99.90;;;;;;5070240;28;20036;-65
2021/06/12 09:36:37;;;;;;;9.25;2.53;;;23.50;99.90;;;;;;5071245;28;20397;-66
2021/06/12 09:39:21;;;;;;;14.20;3.03;;;23.20;99.90;;;;;;5066600;28;20088;-65
2021/06/12 09:41:49;;;;;;;7.95;2.17;;;23.40;99.90;;;;;;5065073;28;20036;-66
2021/06/12 09:44:39;;;;;;;4.75;1.90;;;23.70;99.90;;;;;;5070356;28;20020;-65
2021/06/12 09:47:25;;;;;;;9.13;4.60;;;24.00;99.90;;;;;;5064881;28;20071;-66
2021/06/12 09:49:58;;;;;;;7.35;1.92;;;24.10;99.90;;;;;;5072843;28;20402;-65
2021/06/12 09:52:24;;;;;;;9.23;2.40;;;24.20;99.90;;;;;;5071401;28;20038;-66
2021/06/12 09:54:52;;;;;;;8.13;2.20;;;24.10;99.90;;;;;;5071450;28;20107;-66
2021/06/12 09:57:20;;;;;;;9.10;2.30;;;24.00;99.90;;;;;;5058543;28;20025;-65
2021/06/12 09:59:49;;;;;;;5.80;2.38;;;23.80;99.90;;;;;;5080499;28;20088;-65
2021/06/12 10:02:39;;;;;;;5.72;2.30;;;23.90;99.90;;;;;;5067197;28;20035;-65
2021/06/12 10:05:08;;;;;;;5.90;2.42;;;23.60;99.90;;;;;;5074706;28;20478;-66
2021/06/12 10:07:34;;;;;;;6.70;2.15;;;23.20;99.90;;;;;;5071680;28;20427;-64
2021/06/12 10:10:06;;;;;;;6.65;2.20;;;23.30;99.90;;;;;;5072562;28;20051;-64
2021/06/12 10:12:33;;;;;;;7.57;2.05;;;23.40;99.90;;;;;;5070199;28;20037;-65
2021/06/12 10:15:00;;;;;;;8.00;2.38;;;23.50;99.90;;;;;;5079860;28;20030;-64
2021/06/12 10:17:28;;;;;;;6.68;1.90;;;23.70;99.90;;;;;;5070567;28;20174;-63
2021/06/12 10:19:56;;;;;;;6.55;2.10;;;24.00;99.90;;;;;;5077657;28;20123;-64
2021/06/12 10:22:22;;;;;;;7.97;2.42;;;24.00;99.90;;;;;;5072509;28;20162;-65
2021/06/12 10:24:50;;;;;;;9.32;2.55;;;24.10;99.90;;;;;;5072871;28;20032;-64
2021/06/12 10:27:17;;;;;;;6.22;2.00;;;24.30;99.90;;;;;;5071284;28;20099;-64
2021/06/12 10:29:44;;;;;;;9.00;2.22;;;24.20;99.90;;;;;;5078334;28;20037;-64
2021/06/12 10:32:13;;;;;;;8.75;2.17;;;24.10;99.90;;;;;;5070797;28;20457;-64
2021/06/12 10:34:40;;;;;;;9.27;2.50;;;24.30;99.90;;;;;;5072788;28;20028;-63
2021/06/12 10:37:08;;;;;;;9.70;2.67;;;24.50;99.90;;;;;;5070779;28;20480;-65
2021/06/12 10:39:36;;;;;;;7.55;2.35;;;24.10;99.90;;;;;;5072838;28;20039;-64
2021/06/12 10:42:20;;;;;;;11.10;2.88;;;24.00;99.90;;;;;;5068810;28;20183;-65
2021/06/12 10:44:51;;;;;;;10.70;2.72;;;23.50;99.90;;;;;;5056070;28;20102;-64
2021/06/12 10:47:36;;;;;;;10.43;2.63;;;23.20;99.90;;;;;;5074097;28;20032;-66
2021/06/12 10:50:25;;;;;;;5.35;2.30;;;23.20;99.90;;;;;;5077869;28;20077;-65
2021/06/12 10:53:13;;;;;;;11.70;2.90;;;23.10;99.90;;;;;;5071993;28;20043;-65
2021/06/12 10:55:44;;;;;;;7.82;2.10;;;23.30;99.90;;;;;;5066810;28;20040;-65
2021/06/12 10:58:32;;;;;;;12.02;2.55;;;23.70;99.90;;;;;;5074730;28;20101;-64
2021/06/12 11:01:19;;;;;;;8.07;2.50;;;24.10;99.90;;;;;;5075725;28;20025;-65
2021/06/12 11:06:44;;;;;;;16.55;2.67;;;23.80;99.90;;;;;;5080411;28;20045;-65
2021/06/12 11:09:17;;;;;;;7.72;2.60;;;23.70;99.90;;;;;;5078931;28;20024;-63
2021/06/12 11:12:15;;;;;;;5.18;2.08;;;23.60;99.90;;;;;;5070327;28;20033;-64
2021/06/12 11:14:55;;;;;;;5.10;2.35;;;23.70;99.90;;;;;;5034975;28;20467;-63
2021/06/12 11:17:20;;;;;;;9.15;2.63;;;23.80;99.90;;;;;;5063626;28;20029;-67
2021/06/12 11:20:10;;;;;;;6.25;2.88;;;24.10;99.90;;;;;;5069419;28;20400;-66
2021/06/12 11:22:54;;;;;;;20.02;8.63;;;24.20;99.90;;;;;;5072839;28;20068;-65
2021/06/12 11:25:19;;;;;;;8.77;2.97;;;24.50;99.90;;;;;;5069291;28;20044;-64
2021/06/12 11:27:47;;;;;;;9.20;3.08;;;24.20;99.90;;;;;;5067827;28;20036;-64
2021/06/12 11:30:19;;;;;;;6.53;2.70;;;24.50;99.90;;;;;;5069462;28;20096;-66
2021/06/12 11:33:05;;;;;;;7.13;2.53;;;24.50;99.90;;;;;;5068786;28;20025;-64
2021/06/12 11:35:55;;;;;;;10.35;2.97;;;24.20;99.90;;;;;;5064727;28;20546;-68
2021/06/12 11:38:37;;;;;;;8.25;2.88;;;24.40;99.90;;;;;;5069716;28;20120;-66
2021/06/12 11:41:10;;;;;;;14.18;3.97;;;24.20;99.90;;;;;;5072887;28;20039;-63
2021/06/12 11:43:36;;;;;;;13.10;3.83;;;24.40;99.90;;;;;;5068271;28;20043;-64
2021/06/12 11:46:18;;;;;;;6.95;2.95;;;24.40;99.90;;;;;;5071177;28;20099;-64
2021/06/12 11:48:49;;;;;;;10.95;3.58;;;24.10;99.90;;;;;;5066192;28;20044;-64
2021/06/12 11:51:25;;;;;;;7.65;2.70;;;23.90;99.90;;;;;;5070579;28;20445;-64
2021/06/12 11:54:14;;;;;;;10.50;3.28;;;24.00;99.90;;;;;;5073514;28;20048;-65
2021/06/12 11:56:54;;;;;;;6.75;3.13;;;24.10;99.90;;;;;;5052980;28;20074;-66
2021/06/12 11:59:23;;;;;;;8.43;2.97;;;23.80;99.90;;;;;;5070533;28;20035;-64
2021/06/12 12:02:05;;;;;;;15.38;3.30;;;23.50;99.90;;;;;;5069778;28;20032;-64
2021/06/12 12:04:36;;;;;;;10.25;3.45;;;23.30;99.90;;;;;;5071958;28;20036;-63
2021/06/12 12:07:05;;;;;;;7.68;3.78;;;23.30;99.90;;;;;;5068404;28;20051;-66
2021/06/12 12:09:40;;;;;;;5.93;3.22;;;23.20;99.90;;;;;;5069167;28;20128;-66
2021/06/12 12:12:07;;;;;;;11.68;4.07;;;23.20;99.90;;;;;;5070347;28;20025;-65
2021/06/12 12:14:39;;;;;;;8.65;3.70;;;23.10;99.90;;;;;;5071916;28;20032;-64
2021/06/12 12:17:19;;;;;;;8.05;4.10;;;23.10;99.90;;;;;;5074469;28;20054;-66
2021/06/12 12:19:45;;;;;;;9.05;4.47;;;23.30;99.90;;;;;;5074030;28;20032;-64
2021/06/12 12:22:10;;;;;;;6.85;3.33;;;23.40;99.90;;;;;;5073845;28;20085;-66
2021/06/12 12:24:36;;;;;;;7.32;3.13;;;23.40;99.90;;;;;;5073725;28;20041;-64
2021/06/12 12:27:07;;;;;;;10.75;3.53;;;23.30;99.90;;;;;;5076289;28;20029;-63
2021/06/12 12:29:38;;;;;;;6.65;3.22;;;23.30;99.90;;;;;;5070693;28;20391;-64
2021/06/12 12:32:04;;;;;;;9.02;4.00;;;23.30;99.90;;;;;;5066670;28;20062;-64
2021/06/12 12:34:35;;;;;;;8.52;3.67;;;23.60;99.90;;;;;;5074325;28;20490;-66
2021/06/12 12:37:01;;;;;;;9.10;3.70;;;23.50;99.90;;;;;;5072958;28;20046;-66
2021/06/12 12:39:41;;;;;;;11.32;3.70;;;23.80;99.90;;;;;;5077194;28;20043;-65
2021/06/12 12:42:09;;;;;;;8.90;3.70;;;23.80;99.90;;;;;;5079480;28;20032;-65
2021/06/12 12:44:35;;;;;;;6.75;3.75;;;23.50;99.90;;;;;;5076089;28;20386;-64
2021/06/12 12:47:02;;;;;;;8.25;3.75;;;23.30;99.90;;;;;;5076513;28;20028;-65
2021/06/12 12:49:31;;;;;;;7.57;3.50;;;23.00;99.90;;;;;;5062030;28;20114;-65
2021/06/12 12:52:04;;;;;;;9.93;3.55;;;23.00;99.90;;;;;;5071736;28;20040;-65
2021/06/12 12:54:33;;;;;;;10.23;4.05;;;22.90;99.90;;;;;;5075051;28;20027;-65